Time;durP1;ratioP1;P1;durP2;ratioP2;P2;SDS_P1;SDS_P2;PMS_P1;PMS_P2;Temp;Humidity;BMP_temperature;BMP_pressure;BME280_temperature;BME280_humidity;BME280_pressure;Samples;Min_cycle;Max_cycle;Signal;HPM_P1;HPM_P2
2022/01/30 00:02:14;;;;;;;11.35;1.40;;;5.20;99.90;;;;;;5054881;28;20048;-81
2022/01/30 00:04:40;;;;;;;12.68;1.70;;;5.20;99.90;;;;;;5031510;28;20037;-82
2022/01/30 00:07:06;;;;;;;18.13;3.95;;;5.10;99.90;;;;;;5043296;28;20067;-82
2022/01/30 00:09:31;;;;;;;14.90;2.55;;;5.10;99.90;;;;;;5040749;28;20112;-81
2022/01/30 00:12:01;;;;;;;16.73;3.33;;;5.20;99.90;;;;;;5035664;28;20094;-80
2022/01/30 00:14:29;;;;;;;17.75;4.90;;;5.20;99.90;;;;;;5035483;28;20044;-82
2022/01/30 00:16:59;;;;;;;10.05;2.55;;;5.30;99.90;;;;;;5035601;28;20051;-81
2022/01/30 00:22:12;;;;;;;10.20;2.60;;;5.40;99.90;;;;;;5035880;28;20044;-81
2022/01/30 00:24:54;;;;;;;14.68;3.08;;;5.40;99.90;;;;;;5035351;28;20136;-81
2022/01/30 00:27:21;;;;;;;12.82;2.40;;;5.40;99.90;;;;;;5035017;28;20049;-80
2022/01/30 00:29:47;;;;;;;15.80;3.47;;;5.40;99.90;;;;;;5035355;28;20518;-82
2022/01/30 00:32:13;;;;;;;16.20;4.50;;;5.50;99.90;;;;;;5034601;28;20090;-81
2022/01/30 00:34:38;;;;;;;17.45;3.50;;;5.60;99.90;;;;;;5035009;28;20041;-80
2022/01/30 00:37:04;;;;;;;20.25;5.18;;;5.70;99.90;;;;;;5035346;28;20044;-80
2022/01/30 00:39:30;;;;;;;12.50;2.30;;;5.70;99.90;;;;;;5035526;28;20043;-80
2022/01/30 00:41:55;;;;;;;16.85;3.90;;;5.80;99.90;;;;;;5034855;28;20044;-80
2022/01/30 00:44:21;;;;;;;19.67;4.22;;;5.80;99.90;;;;;;5034519;28;20049;-82
2022/01/30 00:46:47;;;;;;;16.75;3.63;;;5.90;99.90;;;;;;5034222;28;20416;-80
2022/01/30 00:49:13;;;;;;;18.95;3.78;;;6.00;99.90;;;;;;5034543;28;20090;-81
2022/01/30 00:51:38;;;;;;;17.40;3.35;;;6.00;99.90;;;;;;5040751;28;20175;-81
2022/01/30 00:54:05;;;;;;;16.27;3.75;;;6.10;99.90;;;;;;5051951;28;20047;-82
2022/01/30 00:56:30;;;;;;;11.57;4.28;;;6.10;99.90;;;;;;5051624;28;20040;-81
2022/01/30 00:58:56;;;;;;;26.30;3.20;;;6.10;99.90;;;;;;5018748;28;20064;-82
2022/01/30 01:01:21;;;;;;;19.80;3.85;;;6.10;99.90;;;;;;5036049;28;20043;-80
2022/01/30 01:03:47;;;;;;;10.82;1.60;;;5.90;99.90;;;;;;5036003;28;20041;-81
2022/01/30 01:06:13;;;;;;;12.25;3.38;;;5.40;99.90;;;;;;5035376;28;20039;-81
2022/01/30 01:24:40;;;;;;;16.77;3.22;;;4.90;99.90;;;;;;5034279;28;20045;-80
2022/01/30 01:27:06;;;;;;;11.15;3.60;;;5.00;99.90;;;;;;5034256;28;20039;-80
2022/01/30 01:29:31;;;;;;;23.70;4.43;;;5.00;99.90;;;;;;5018162;28;20031;-79
2022/01/30 01:31:57;;;;;;;14.23;2.15;;;5.00;99.90;;;;;;5033772;28;20447;-80
2022/01/30 01:36:50;;;;;;;12.70;2.03;;;5.00;99.90;;;;;;5033886;28;20045;-80
2022/01/30 01:39:16;;;;;;;14.00;2.10;;;4.90;99.90;;;;;;5034265;28;20040;-80
2022/01/30 01:41:42;;;;;;;17.58;5.38;;;4.90;99.90;;;;;;5050049;28;20121;-80
2022/01/30 01:44:16;;;;;;;17.05;3.55;;;4.90;99.90;;;;;;5033575;28;20069;-79
2022/01/30 01:46:43;;;;;;;11.18;2.53;;;4.90;99.90;;;;;;5017293;28;20090;-82
2022/01/30 01:49:15;;;;;;;14.73;2.95;;;5.00;99.90;;;;;;5033873;28;20048;-79
2022/01/30 01:51:47;;;;;;;19.70;4.10;;;5.10;99.90;;;;;;5050923;28;20045;-81
2022/01/30 01:54:13;;;;;;;22.65;3.40;;;5.10;99.90;;;;;;5035110;28;20656;-80
2022/01/30 01:56:38;;;;;;;14.30;3.65;;;5.20;99.90;;;;;;5019803;28;20202;-82
2022/01/30 01:59:04;;;;;;;16.42;4.32;;;5.30;99.90;;;;;;5034126;28;20064;-80
2022/01/30 02:01:30;;;;;;;18.63;3.35;;;5.30;99.90;;;;;;5053705;28;20537;-80
2022/01/30 02:03:55;;;;;;;17.73;2.88;;;5.40;99.90;;;;;;5055036;28;20045;-81
2022/01/30 02:06:24;;;;;;;15.68;4.15;;;5.60;99.90;;;;;;5054530;28;20080;-81
2022/01/30 02:08:56;;;;;;;22.45;3.20;;;5.60;99.90;;;;;;5038232;28;20071;-81
2022/01/30 02:11:42;;;;;;;11.20;2.67;;;5.60;99.90;;;;;;5052321;28;20055;-81
2022/01/30 02:25:18;;;;;;;19.10;4.15;;;5.40;99.90;;;;;;5036857;28;20049;-81
2022/01/30 02:27:43;;;;;;;29.73;5.03;;;5.40;99.90;;;;;;5036739;28;20128;-80
2022/01/30 02:30:16;;;;;;;19.90;5.22;;;5.50;99.90;;;;;;5036845;28;20116;-81
2022/01/30 02:32:42;;;;;;;20.05;3.67;;;5.50;99.90;;;;;;5047387;28;20295;-81
2022/01/30 02:35:08;;;;;;;21.10;4.68;;;5.60;99.90;;;;;;5053117;28;20385;-79
2022/01/30 02:37:34;;;;;;;13.18;3.15;;;5.60;99.90;;;;;;5036647;28;20256;-80
2022/01/30 02:40:00;;;;;;;27.35;5.10;;;5.60;99.90;;;;;;5037965;28;20037;-82
2022/01/30 02:42:31;;;;;;;15.02;3.95;;;5.60;99.90;;;;;;5020909;28;20047;-80
2022/01/30 02:45:00;;;;;;;20.58;5.55;;;5.60;99.90;;;;;;5054525;28;20048;-82
2022/01/30 02:47:40;;;;;;;24.13;4.60;;;5.50;99.90;;;;;;5054743;28;20044;-80
2022/01/30 02:50:21;;;;;;;20.58;4.53;;;5.40;99.90;;;;;;5046685;28;20049;-81
2022/01/30 02:52:56;;;;;;;23.67;4.63;;;5.40;99.90;;;;;;5053821;28;20049;-81
2022/01/30 02:55:22;;;;;;;21.55;3.00;;;5.40;99.90;;;;;;5036482;28;20083;-81
2022/01/30 02:57:47;;;;;;;12.25;2.45;;;5.40;99.90;;;;;;5037043;28;20033;-81
2022/01/30 03:00:14;;;;;;;18.55;5.53;;;5.50;99.90;;;;;;5041550;28;20060;-82
2022/01/30 03:02:39;;;;;;;20.40;5.18;;;5.50;99.90;;;;;;5033222;28;20053;-80
2022/01/30 03:05:05;;;;;;;20.02;4.40;;;5.50;99.90;;;;;;5041661;28;20124;-80
2022/01/30 03:07:31;;;;;;;26.70;7.85;;;5.60;99.90;;;;;;5036033;28;20044;-80
2022/01/30 03:09:56;;;;;;;18.52;5.55;;;5.60;99.90;;;;;;5043299;28;20037;-81
2022/01/30 03:12:22;;;;;;;15.88;4.60;;;5.70;99.90;;;;;;5052297;28;20052;-81
2022/01/30 03:14:47;;;;;;;24.45;4.65;;;5.70;99.90;;;;;;5052224;28;20037;-80
2022/01/30 03:17:13;;;;;;;10.82;2.60;;;5.70;99.90;;;;;;5051365;28;20080;-80
2022/01/30 03:19:39;;;;;;;19.17;5.00;;;5.70;99.90;;;;;;5039426;28;20033;-80
2022/01/30 03:22:04;;;;;;;15.80;4.22;;;5.60;99.90;;;;;;5052651;28;20125;-81
2022/01/30 03:24:37;;;;;;;23.25;4.05;;;5.70;99.90;;;;;;5052365;28;20080;-80
2022/01/30 03:27:08;;;;;;;18.80;4.45;;;5.70;99.90;;;;;;5051948;28;20060;-81
2022/01/30 03:29:35;;;;;;;24.42;5.05;;;5.90;99.90;;;;;;5048332;28;20106;-81
2022/01/30 03:32:00;;;;;;;27.50;5.25;;;5.90;99.90;;;;;;5051737;28;20041;-79
2022/01/30 03:34:26;;;;;;;15.80;3.92;;;5.90;99.90;;;;;;5051787;28;20541;-80
2022/01/30 03:36:52;;;;;;;20.83;4.95;;;6.00;99.90;;;;;;5035260;28;20550;-82
2022/01/30 03:39:18;;;;;;;14.90;4.15;;;6.00;99.90;;;;;;5039788;28;20511;-80
2022/01/30 03:41:44;;;;;;;22.02;4.75;;;6.00;99.90;;;;;;5051549;28;20037;-81
2022/01/30 03:44:10;;;;;;;23.50;6.55;;;6.00;99.90;;;;;;5051443;28;20095;-80
2022/01/30 03:46:35;;;;;;;28.85;7.35;;;6.00;99.90;;;;;;5051349;28;20068;-81
2022/01/30 03:49:01;;;;;;;26.33;4.88;;;6.00;99.90;;;;;;5048681;28;20041;-80
2022/01/30 03:51:26;;;;;;;16.50;4.05;;;6.00;99.90;;;;;;5017673;28;20045;-81
2022/01/30 03:53:52;;;;;;;23.00;4.07;;;6.00;99.90;;;;;;5034623;28;20040;-79
2022/01/30 03:56:17;;;;;;;16.35;4.78;;;6.00;99.90;;;;;;5034820;28;20060;-79
2022/01/30 03:58:43;;;;;;;16.88;6.10;;;6.00;99.90;;;;;;5034914;28;20511;-80
2022/01/30 04:01:08;;;;;;;24.10;5.35;;;6.00;99.90;;;;;;5034513;28;20037;-79
2022/01/30 04:03:36;;;;;;;33.53;5.63;;;6.00;99.90;;;;;;5034418;28;20045;-81
2022/01/30 04:06:02;;;;;;;27.92;4.20;;;6.00;99.90;;;;;;5033956;28;20044;-79
2022/01/30 04:08:28;;;;;;;14.98;3.42;;;5.90;99.90;;;;;;5050655;28;20102;-81
2022/01/30 04:10:54;;;;;;;22.90;4.47;;;5.80;99.90;;;;;;5051148;28;20049;-81
2022/01/30 04:13:20;;;;;;;26.23;6.07;;;5.90;99.90;;;;;;5051399;28;20487;-81
2022/01/30 04:15:46;;;;;;;10.88;2.15;;;5.80;99.90;;;;;;5052131;28;20059;-83
2022/01/30 04:18:12;;;;;;;12.68;1.95;;;5.60;99.90;;;;;;5043035;28;20475;-81
2022/01/30 04:20:37;;;;;;;14.82;3.35;;;5.50;99.90;;;;;;5037679;28;20041;-83
2022/01/30 04:23:03;;;;;;;28.25;5.85;;;5.40;99.90;;;;;;5049967;28;20044;-83
2022/01/30 04:25:28;;;;;;;31.00;5.88;;;5.40;99.90;;;;;;5034332;28;20428;-82
2022/01/30 04:27:54;;;;;;;27.20;6.07;;;5.40;99.90;;;;;;5034663;28;20500;-82
2022/01/30 04:30:21;;;;;;;22.45;4.00;;;5.40;99.90;;;;;;5038735;28;20413;-82
2022/01/30 04:32:47;;;;;;;32.05;6.07;;;5.40;99.90;;;;;;5050692;28;20500;-82
2022/01/30 04:35:21;;;;;;;21.30;5.47;;;5.30;99.90;;;;;;5049978;28;20033;-82
2022/01/30 04:38:01;;;;;;;21.27;4.75;;;5.40;99.90;;;;;;5050420;28;20033;-82
2022/01/30 05:04:40;;;;;;;37.15;8.88;;;5.70;99.90;;;;;;5050967;28;20049;-82
2022/01/30 05:09:33;;;;;;;30.92;7.35;;;5.80;99.90;;;;;;5027575;28;20571;-81
2022/01/30 05:11:58;;;;;;;36.80;6.65;;;5.80;99.90;;;;;;5033598;28;20124;-81
2022/01/30 05:14:27;;;;;;;27.73;8.27;;;5.80;99.90;;;;;;5050692;28;20128;-81
2022/01/30 05:16:53;;;;;;;37.55;7.53;;;5.80;99.90;;;;;;5051232;28;20060;-80
2022/01/30 05:19:19;;;;;;;18.83;5.63;;;5.90;99.90;;;;;;5031078;28;20446;-81
2022/01/30 05:21:45;;;;;;;24.05;6.57;;;5.80;99.90;;;;;;5034808;28;20040;-81
2022/01/30 05:24:11;;;;;;;23.75;6.22;;;5.80;99.90;;;;;;5017651;28;20041;-81
2022/01/30 05:26:41;;;;;;;34.60;7.20;;;5.90;99.90;;;;;;5034221;28;20083;-81
2022/01/30 05:29:07;;;;;;;26.92;7.20;;;5.80;99.90;;;;;;5018734;28;20045;-80
2022/01/30 05:31:33;;;;;;;33.35;7.70;;;5.90;99.90;;;;;;5051069;28;20052;-81
2022/01/30 05:33:59;;;;;;;23.92;7.68;;;5.90;99.90;;;;;;5051511;28;20854;-80
2022/01/30 05:36:25;;;;;;;37.85;7.50;;;5.90;99.90;;;;;;5038278;28;20040;-80
2022/01/30 05:38:51;;;;;;;28.90;7.85;;;5.90;99.90;;;;;;5038806;28;20102;-81
2022/01/30 05:41:17;;;;;;;29.92;6.65;;;5.90;99.90;;;;;;5038340;28;20041;-81
2022/01/30 05:43:46;;;;;;;33.65;7.97;;;6.00;99.90;;;;;;5038062;28;20512;-82
2022/01/30 05:46:18;;;;;;;23.70;7.03;;;6.00;99.90;;;;;;5021502;28;20178;-81
2022/01/30 05:48:44;;;;;;;31.27;8.30;;;6.00;99.90;;;;;;5040000;28;20037;-81
2022/01/30 05:51:10;;;;;;;28.02;8.05;;;5.90;99.90;;;;;;5054960;28;20052;-81
2022/01/30 05:53:35;;;;;;;30.80;7.47;;;5.90;99.90;;;;;;5039043;28;20037;-81
2022/01/30 05:56:01;;;;;;;25.48;6.32;;;5.80;99.90;;;;;;5038405;28;20398;-80
2022/01/30 05:58:27;;;;;;;26.38;6.32;;;5.90;99.90;;;;;;5039215;28;20044;-81
2022/01/30 06:00:52;;;;;;;17.10;5.22;;;5.80;99.90;;;;;;5052628;28;20562;-81
2022/01/30 06:03:18;;;;;;;30.98;7.15;;;5.80;99.90;;;;;;5055319;28;20041;-80
2022/01/30 06:05:48;;;;;;;25.70;7.40;;;5.90;99.90;;;;;;5054439;28;20051;-81
2022/01/30 06:08:26;;;;;;;24.20;6.18;;;5.90;99.90;;;;;;5044231;28;20037;-82
2022/01/30 06:10:52;;;;;;;35.40;7.22;;;5.80;99.90;;;;;;5048278;28;20500;-82
2022/01/30 06:13:18;;;;;;;47.10;11.10;;;5.80;99.90;;;;;;5020954;28;20040;-82
2022/01/30 06:15:43;;;;;;;24.10;6.68;;;5.70;99.90;;;;;;5037611;28;20036;-82
2022/01/30 06:18:09;;;;;;;16.55;4.43;;;5.50;99.90;;;;;;5053279;28;20222;-82
2022/01/30 06:20:34;;;;;;;34.58;8.90;;;5.10;99.90;;;;;;5041490;28;20044;-83
2022/01/30 06:23:00;;;;;;;32.40;8.43;;;4.90;99.90;;;;;;5036653;28;20041;-82
2022/01/30 06:25:25;;;;;;;21.80;6.43;;;4.70;99.90;;;;;;5036753;28;20143;-83
2022/01/30 06:27:51;;;;;;;27.48;8.88;;;4.70;99.90;;;;;;5046288;28;20033;-83
2022/01/30 06:30:21;;;;;;;41.95;6.97;;;4.70;99.90;;;;;;5027622;28;20083;-81
2022/01/30 06:32:48;;;;;;;24.58;6.57;;;4.60;99.90;;;;;;5020117;28;20574;-82
2022/01/30 06:35:13;;;;;;;36.50;7.28;;;4.70;99.90;;;;;;5033347;28;20037;-83
2022/01/30 06:37:39;;;;;;;34.17;7.53;;;4.60;99.90;;;;;;5000003;28;20428;-81
2022/01/30 06:40:05;;;;;;;26.75;7.10;;;4.60;99.90;;;;;;5033084;28;20166;-82
2022/01/30 06:42:32;;;;;;;24.85;7.65;;;4.60;99.90;;;;;;5036337;28;20033;-81
2022/01/30 06:44:57;;;;;;;29.80;7.70;;;4.80;99.90;;;;;;5036548;28;20052;-82
2022/01/30 06:47:23;;;;;;;36.67;7.53;;;4.90;99.90;;;;;;5035102;28;20045;-81
2022/01/30 06:49:49;;;;;;;36.35;8.48;;;5.10;99.90;;;;;;5040975;28;20060;-82
2022/01/30 06:52:15;;;;;;;32.15;7.53;;;5.10;99.90;;;;;;5052841;28;20534;-81
2022/01/30 06:54:40;;;;;;;32.70;7.30;;;5.20;99.90;;;;;;5052860;28;20526;-81
2022/01/30 06:57:06;;;;;;;26.00;8.02;;;5.20;99.90;;;;;;5037159;28;20041;-82
2022/01/30 06:59:32;;;;;;;33.20;6.85;;;5.30;99.90;;;;;;5036372;28;20040;-82
2022/01/30 07:01:57;;;;;;;30.52;8.02;;;5.40;99.90;;;;;;5019423;28;20048;-83
2022/01/30 07:04:23;;;;;;;29.05;8.15;;;5.50;99.90;;;;;;5036427;28;20119;-81
2022/01/30 07:06:48;;;;;;;21.83;6.40;;;5.50;99.90;;;;;;5035759;28;20507;-82
2022/01/30 07:09:14;;;;;;;24.55;5.78;;;5.60;99.90;;;;;;5019798;28;20052;-81
2022/01/30 07:11:40;;;;;;;32.90;7.43;;;5.60;99.90;;;;;;5040930;28;20048;-81
2022/01/30 07:14:05;;;;;;;31.17;7.78;;;5.60;99.90;;;;;;5037131;28;20041;-81
2022/01/30 07:16:31;;;;;;;21.42;5.55;;;5.60;99.90;;;;;;5035938;28;20045;-82
2022/01/30 07:18:57;;;;;;;30.73;7.05;;;5.60;99.90;;;;;;5019286;28;20036;-80
2022/01/30 07:21:22;;;;;;;21.52;5.70;;;5.50;99.90;;;;;;5035661;28;20432;-82
2022/01/30 07:23:48;;;;;;;18.27;3.92;;;5.50;99.90;;;;;;5035607;28;20091;-81
2022/01/30 07:26:13;;;;;;;35.08;9.02;;;5.50;99.90;;;;;;5035787;28;20115;-82
2022/01/30 07:28:39;;;;;;;12.90;4.20;;;5.60;99.90;;;;;;5037148;28;20510;-80
2022/01/30 07:31:04;;;;;;;24.45;6.88;;;5.50;99.90;;;;;;5049578;28;20036;-82
2022/01/30 07:33:31;;;;;;;39.95;9.10;;;5.50;99.90;;;;;;5052257;28;20446;-83
2022/01/30 07:35:57;;;;;;;22.75;5.70;;;5.50;99.90;;;;;;5053695;28;20075;-82
2022/01/30 07:38:23;;;;;;;19.95;6.57;;;5.50;99.90;;;;;;5036448;28;20496;-82
2022/01/30 07:40:50;;;;;;;28.83;6.93;;;5.60;99.90;;;;;;5036071;28;20052;-82
2022/01/30 07:43:15;;;;;;;23.83;7.15;;;5.60;99.90;;;;;;5052652;28;20586;-82
2022/01/30 07:45:41;;;;;;;28.58;7.43;;;5.60;99.90;;;;;;5019399;28;20041;-81
2022/01/30 07:48:06;;;;;;;22.40;5.88;;;5.60;99.90;;;;;;5036161;28;20037;-81
2022/01/30 07:50:32;;;;;;;31.42;8.05;;;5.70;99.90;;;;;;5043740;28;20040;-80
2022/01/30 07:52:58;;;;;;;27.27;6.72;;;5.70;99.90;;;;;;5038508;28;20041;-81
2022/01/30 07:55:23;;;;;;;27.30;6.65;;;5.70;99.90;;;;;;5036218;28;20032;-81
2022/01/30 07:57:49;;;;;;;25.52;6.30;;;5.70;99.90;;;;;;5034830;28;20037;-82
2022/01/30 08:00:15;;;;;;;25.85;8.10;;;5.70;99.90;;;;;;5043180;28;20390;-80
2022/01/30 08:02:40;;;;;;;32.92;7.80;;;5.60;99.90;;;;;;5044437;28;20083;-81
2022/01/30 08:05:07;;;;;;;37.03;10.18;;;5.60;99.90;;;;;;5035461;28;20040;-81
2022/01/30 08:07:32;;;;;;;24.00;5.72;;;5.70;99.90;;;;;;5049762;28;20045;-80
2022/01/30 08:09:59;;;;;;;18.05;5.95;;;5.70;99.90;;;;;;5051172;28;20060;-81
2022/01/30 08:12:24;;;;;;;20.45;4.53;;;5.90;99.90;;;;;;5056967;28;20049;-81
2022/01/30 08:14:50;;;;;;;31.48;7.97;;;5.90;99.90;;;;;;5039177;28;20051;-81
2022/01/30 08:17:21;;;;;;;19.30;4.50;;;5.90;99.90;;;;;;5039251;28;20079;-80
2022/01/30 08:19:47;;;;;;;32.17;5.57;;;5.90;99.90;;;;;;5043590;28;20295;-81
2022/01/30 08:22:13;;;;;;;21.40;6.57;;;5.80;99.90;;;;;;5057404;28;20211;-81
2022/01/30 08:24:39;;;;;;;21.58;6.68;;;5.80;99.90;;;;;;5056115;28;20044;-80
2022/01/30 08:27:05;;;;;;;22.50;6.03;;;5.90;99.90;;;;;;5041064;28;20127;-80
2022/01/30 08:29:31;;;;;;;17.85;6.25;;;5.90;99.90;;;;;;5056169;28;20048;-81
2022/01/30 08:31:58;;;;;;;30.00;7.28;;;6.00;99.90;;;;;;5039879;28;20052;-80
2022/01/30 08:34:24;;;;;;;29.20;5.72;;;6.00;99.90;;;;;;5035811;28;20086;-81
2022/01/30 08:36:50;;;;;;;28.92;6.38;;;6.00;99.90;;;;;;5053345;28;20045;-81
2022/01/30 08:39:16;;;;;;;27.20;8.00;;;6.00;99.90;;;;;;5052072;28;20518;-80
2022/01/30 08:41:41;;;;;;;34.67;7.50;;;6.00;99.90;;;;;;5037697;28;20049;-81
2022/01/30 08:44:07;;;;;;;24.55;6.30;;;6.00;99.90;;;;;;5037037;28;20045;-80
2022/01/30 08:46:32;;;;;;;15.95;4.68;;;6.10;99.90;;;;;;5036534;28;20073;-80
2022/01/30 08:48:58;;;;;;;21.77;6.57;;;6.10;99.90;;;;;;5036887;28;20081;-81
2022/01/30 08:51:24;;;;;;;24.63;5.65;;;6.10;99.90;;;;;;5036769;28;20129;-81
2022/01/30 08:53:50;;;;;;;20.70;7.05;;;6.20;99.90;;;;;;5039321;28;20064;-81
2022/01/30 08:56:15;;;;;;;23.83;7.20;;;6.20;99.90;;;;;;5019655;28;20041;-81
2022/01/30 08:58:41;;;;;;;25.58;6.22;;;6.10;99.90;;;;;;5054757;28;20037;-81
2022/01/30 09:01:08;;;;;;;23.77;7.82;;;6.10;99.90;;;;;;5043102;28;20044;-80
2022/01/30 09:03:34;;;;;;;25.90;5.95;;;6.10;99.90;;;;;;5054883;28;20099;-81
2022/01/30 09:05:59;;;;;;;32.45;8.27;;;6.00;99.90;;;;;;5038702;28;20060;-81
2022/01/30 09:08:25;;;;;;;26.83;6.80;;;6.10;99.90;;;;;;5040493;28;20109;-80
2022/01/30 09:10:51;;;;;;;29.27;6.55;;;6.20;99.90;;;;;;5039940;28;20403;-80
2022/01/30 09:13:17;;;;;;;28.52;7.05;;;6.30;99.90;;;;;;5040205;28;20040;-81
2022/01/30 09:15:43;;;;;;;22.70;5.22;;;6.50;99.90;;;;;;5047115;28;20123;-80
2022/01/30 09:18:10;;;;;;;31.55;6.32;;;6.60;99.90;;;;;;5037641;28;20044;-81
2022/01/30 09:20:39;;;;;;;45.90;14.05;;;6.60;99.90;;;;;;5037950;28;20044;-80
2022/01/30 09:23:05;;;;;;;34.67;7.18;;;6.60;99.90;;;;;;5054035;28;20048;-80
2022/01/30 09:25:31;;;;;;;21.10;5.30;;;6.60;99.90;;;;;;5055130;28;20048;-81
2022/01/30 09:27:57;;;;;;;30.05;9.65;;;6.50;99.90;;;;;;5053779;28;20037;-81
2022/01/30 09:30:23;;;;;;;25.73;7.00;;;6.50;99.90;;;;;;5054038;28;20140;-80
2022/01/30 09:32:49;;;;;;;23.45;6.22;;;6.50;99.90;;;;;;5037197;28;20095;-81
2022/01/30 09:35:14;;;;;;;19.75;5.68;;;6.50;99.90;;;;;;5039030;28;20037;-80
2022/01/30 09:37:40;;;;;;;23.17;7.40;;;6.50;99.90;;;;;;5039379;28;20400;-81
2022/01/30 09:40:07;;;;;;;18.42;6.05;;;6.50;99.90;;;;;;5039841;28;20033;-81
2022/01/30 09:42:32;;;;;;;28.05;6.95;;;6.60;99.90;;;;;;5041070;28;20044;-80
2022/01/30 09:45:03;;;;;;;30.52;7.38;;;6.60;99.90;;;;;;5040899;28;20041;-80
2022/01/30 09:47:30;;;;;;;26.40;8.27;;;6.70;99.90;;;;;;5045075;28;20171;-80
2022/01/30 09:49:58;;;;;;;26.77;6.90;;;6.70;99.90;;;;;;5054268;28;20037;-81
2022/01/30 09:52:24;;;;;;;27.50;7.40;;;6.70;99.90;;;;;;5043078;28;20099;-81
2022/01/30 09:54:50;;;;;;;18.30;5.53;;;6.70;99.90;;;;;;5046617;28;20511;-81
2022/01/30 09:57:16;;;;;;;18.73;5.32;;;6.70;99.90;;;;;;5048621;28;20045;-80
2022/01/30 09:59:42;;;;;;;14.18;4.63;;;6.80;99.90;;;;;;5046365;28;20384;-81
2022/01/30 10:02:09;;;;;;;27.23;6.78;;;6.80;99.90;;;;;;5044879;28;20036;-81
2022/01/30 10:04:36;;;;;;;22.90;6.80;;;6.80;99.90;;;;;;5047743;28;20037;-81
2022/01/30 10:07:06;;;;;;;23.05;4.93;;;6.90;99.90;;;;;;5032211;28;20051;-81
2022/01/30 10:09:35;;;;;;;23.63;5.68;;;6.90;99.90;;;;;;5028903;28;20511;-81
2022/01/30 10:12:19;;;;;;;36.45;13.10;;;6.90;99.90;;;;;;5038405;28;20065;-81
2022/01/30 10:14:48;;;;;;;31.65;13.65;;;6.90;99.90;;;;;;5036596;28;20091;-81
2022/01/30 10:17:29;;;;;;;31.00;9.45;;;7.00;99.90;;;;;;5038277;28;20124;-80
2022/01/30 10:20:03;;;;;;;48.53;21.92;;;7.00;99.90;;;;;;5036486;28;20041;-81
2022/01/30 10:22:29;;;;;;;38.35;12.10;;;7.10;99.90;;;;;;5023118;28;20488;-81
2022/01/30 10:24:54;;;;;;;19.35;5.93;;;7.10;99.90;;;;;;5040060;28;20055;-80
2022/01/30 10:27:27;;;;;;;21.95;5.20;;;7.20;99.90;;;;;;5041171;28;20736;-81
2022/01/30 10:30:01;;;;;;;19.33;5.72;;;7.20;99.90;;;;;;5024187;28;20044;-81
2022/01/30 10:32:27;;;;;;;17.30;5.30;;;7.20;99.90;;;;;;5024169;28;20045;-80
2022/01/30 10:35:00;;;;;;;21.17;4.95;;;7.20;99.90;;;;;;5041173;28;20043;-81
2022/01/30 10:37:26;;;;;;;24.33;5.65;;;7.20;99.90;;;;;;5034017;28;20041;-80
2022/01/30 10:40:19;;;;;;;23.55;5.95;;;7.20;99.90;;;;;;5056945;28;20044;-81
2022/01/30 10:42:47;;;;;;;25.08;5.65;;;7.20;99.90;;;;;;5056429;28;20044;-81
2022/01/30 10:45:18;;;;;;;27.02;5.65;;;7.40;99.90;;;;;;5057892;28;20082;-81
2022/01/30 10:47:44;;;;;;;18.90;4.25;;;7.40;99.90;;;;;;5040282;28;20041;-81
2022/01/30 10:50:22;;;;;;;21.23;5.55;;;7.40;99.90;;;;;;5057537;28;20132;-80
2022/01/30 10:53:01;;;;;;;29.35;5.40;;;7.50;99.90;;;;;;5059573;28;20037;-81
2022/01/30 10:55:42;;;;;;;25.80;6.13;;;7.70;99.90;;;;;;5027287;28;20392;-81
2022/01/30 10:58:15;;;;;;;40.58;6.80;;;7.80;99.90;;;;;;5042845;28;20531;-81
2022/01/30 11:00:59;;;;;;;23.20;4.82;;;7.90;99.90;;;;;;5039286;28;20518;-80
2022/01/30 11:03:36;;;;;;;16.98;5.47;;;8.00;99.90;;;;;;5040242;28;20106;-81
2022/01/30 11:06:03;;;;;;;25.85;6.07;;;8.00;99.90;;;;;;5038695;28;20033;-81
2022/01/30 11:08:31;;;;;;;18.65;4.70;;;7.90;99.90;;;;;;5039324;28;20044;-81
2022/01/30 11:11:03;;;;;;;15.77;3.35;;;7.80;99.90;;;;;;5041815;28;20037;-81
2022/01/30 11:13:33;;;;;;;23.70;6.65;;;7.50;99.90;;;;;;5028557;28;20050;-81
2022/01/30 11:16:56;;;;;;;12.65;2.88;;;7.30;99.90;;;;;;5042150;28;20033;-82
2022/01/30 11:18:52;;;;;;;19.30;4.38;;;7.20;99.90;;;;;;5041957;28;20052;-81
2022/01/30 11:21:21;;;;;;;16.20;4.10;;;7.30;99.90;;;;;;5044822;28;20415;-80
2022/01/30 11:23:48;;;;;;;14.02;4.78;;;7.40;99.90;;;;;;5043313;28;20045;-81
2022/01/30 11:26:14;;;;;;;20.80;5.18;;;7.60;99.90;;;;;;5043080;28;20049;-81
2022/01/30 11:28:40;;;;;;;20.38;5.20;;;7.70;99.90;;;;;;5043354;28;20487;-81
2022/01/30 11:31:06;;;;;;;23.70;7.22;;;8.00;99.90;;;;;;5024720;28;20080;-80
2022/01/30 11:33:32;;;;;;;27.02;5.25;;;8.10;99.90;;;;;;5039377;28;20139;-81
2022/01/30 11:35:58;;;;;;;20.15;4.32;;;8.20;99.90;;;;;;5055935;28;20033;-81
2022/01/30 11:38:24;;;;;;;25.90;6.20;;;8.00;99.90;;;;;;5056329;28;20044;-80
2022/01/30 11:41:09;;;;;;;26.48;7.22;;;7.90;99.90;;;;;;5039483;28;20033;-81
2022/01/30 11:43:35;;;;;;;13.95;4.95;;;7.80;99.90;;;;;;5022110;28;20040;-81
2022/01/30 11:46:15;;;;;;;22.02;6.30;;;7.90;99.90;;;;;;5039642;28;20088;-81
2022/01/30 11:48:41;;;;;;;24.45;5.57;;;8.10;99.90;;;;;;5055905;28;20029;-82
2022/01/30 11:51:07;;;;;;;22.33;5.70;;;8.10;99.90;;;;;;5054604;28;20041;-81
2022/01/30 11:53:33;;;;;;;15.90;4.28;;;8.20;99.90;;;;;;5039592;28;20025;-81
2022/01/30 11:56:01;;;;;;;20.67;5.18;;;8.00;99.90;;;;;;5040253;28;20094;-80
2022/01/30 11:58:32;;;;;;;22.38;5.72;;;7.80;99.90;;;;;;5022778;28;20040;-81
2022/01/30 12:01:19;;;;;;;26.00;5.57;;;7.60;99.90;;;;;;5038358;28;20049;-82
2022/01/30 12:03:59;;;;;;;21.60;5.57;;;7.60;99.90;;;;;;5028679;28;20095;-80
2022/01/30 12:06:25;;;;;;;20.08;6.95;;;7.70;99.90;;;;;;5022791;28;20087;-80
2022/01/30 12:08:55;;;;;;;26.50;5.88;;;7.70;99.90;;;;;;5030683;28;20040;-81
2022/01/30 12:11:36;;;;;;;17.45;4.38;;;7.70;99.90;;;;;;5039250;28;20079;-81
2022/01/30 12:14:06;;;;;;;21.75;5.90;;;7.70;99.90;;;;;;5047027;28;20056;-82
2022/01/30 12:16:45;;;;;;;22.27;5.18;;;7.80;99.90;;;;;;5050799;28;20044;-81
2022/01/30 12:19:12;;;;;;;27.73;9.32;;;8.10;99.90;;;;;;5020996;28;20036;-82
2022/01/30 12:21:38;;;;;;;34.83;11.73;;;8.40;99.90;;;;;;5041536;28;20076;-81
2022/01/30 12:24:24;;;;;;;27.95;8.30;;;8.70;99.90;;;;;;5038688;28;20040;-81
2022/01/30 12:27:04;;;;;;;39.25;15.45;;;8.80;99.90;;;;;;5042600;28;20088;-81
2022/01/30 12:29:45;;;;;;;16.27;5.28;;;8.90;99.90;;;;;;5037604;28;20100;-81
2022/01/30 12:32:30;;;;;;;32.42;9.93;;;8.80;99.90;;;;;;5053363;28;20045;-81
2022/01/30 12:34:55;;;;;;;24.20;5.82;;;8.70;99.90;;;;;;5053393;28;20048;-80
2022/01/30 12:37:25;;;;;;;27.70;5.95;;;8.70;99.90;;;;;;5037259;28;20033;-81
2022/01/30 12:39:52;;;;;;;24.55;6.88;;;8.70;99.90;;;;;;5050699;28;20373;-81
2022/01/30 12:42:18;;;;;;;20.13;5.60;;;8.60;99.90;;;;;;5058438;28;20044;-81
2022/01/30 12:44:47;;;;;;;20.25;5.80;;;8.50;99.90;;;;;;5056879;28;20068;-80
2022/01/30 12:47:14;;;;;;;25.27;5.65;;;8.40;99.90;;;;;;5055281;28;20078;-81
2022/01/30 12:49:44;;;;;;;17.50;5.63;;;8.50;99.90;;;;;;5041403;28;20551;-79
2022/01/30 12:52:16;;;;;;;22.02;4.95;;;8.90;99.90;;;;;;5041007;28;20041;-80
2022/01/30 12:54:43;;;;;;;28.17;7.45;;;9.20;99.90;;;;;;5025521;28;20556;-80
2022/01/30 12:57:11;;;;;;;19.40;6.40;;;9.20;99.90;;;;;;5054576;28;20040;-80
2022/01/30 12:59:37;;;;;;;24.20;5.82;;;8.80;99.90;;;;;;5039258;28;20041;-80
2022/01/30 13:02:04;;;;;;;28.83;6.60;;;8.30;99.90;;;;;;5040877;28;20068;-80
2022/01/30 13:04:30;;;;;;;27.33;6.93;;;8.10;99.90;;;;;;5057079;28;20051;-80
2022/01/30 13:06:55;;;;;;;21.98;5.78;;;7.80;99.90;;;;;;5042124;28;20496;-80
2022/01/30 13:09:26;;;;;;;21.13;5.97;;;7.70;99.90;;;;;;5041587;28;20037;-81
2022/01/30 13:11:53;;;;;;;24.17;4.93;;;7.50;99.90;;;;;;5048068;28;20041;-80
2022/01/30 13:14:19;;;;;;;61.30;37.20;;;7.40;99.90;;;;;;5040937;28;20041;-80
2022/01/30 13:16:50;;;;;;;67.45;32.90;;;7.30;99.90;;;;;;5038348;28;20381;-81
2022/01/30 13:19:34;;;;;;;35.53;12.45;;;7.10;99.90;;;;;;5019988;28;20052;-81
2022/01/30 13:22:01;;;;;;;67.72;29.48;;;6.90;99.90;;;;;;5027010;28;20045;-80
2022/01/30 13:24:27;;;;;;;63.70;33.30;;;6.90;99.90;;;;;;5023329;28;20045;-80
2022/01/30 13:27:11;;;;;;;32.47;9.32;;;6.90;99.90;;;;;;5041546;28;20606;-80
2022/01/30 13:29:37;;;;;;;26.27;6.88;;;7.40;99.90;;;;;;5027509;28;20064;-80
2022/01/30 13:32:11;;;;;;;25.00;5.20;;;7.80;99.90;;;;;;5058669;28;20107;-79
2022/01/30 13:34:42;;;;;;;19.45;5.28;;;8.20;99.90;;;;;;5038198;28;20064;-81
2022/01/30 13:37:16;;;;;;;23.27;5.28;;;8.40;99.90;;;;;;5037932;28;20048;-81
2022/01/30 13:39:50;;;;;;;26.37;7.60;;;8.60;99.90;;;;;;5051683;28;20044;-80
2022/01/30 13:42:44;;;;;;;24.90;5.88;;;8.80;99.90;;;;;;5038562;28;20436;-82
2022/01/30 13:47:51;;;;;;;19.50;3.92;;;9.00;99.20;;;;;;5036866;28;20064;-81
2022/01/30 13:50:18;;;;;;;19.55;5.60;;;8.60;98.30;;;;;;5041155;28;20377;-81
2022/01/30 13:52:44;;;;;;;12.38;3.78;;;8.10;97.10;;;;;;5038603;28;20336;-80